Latest Weather Observations for Port Fairy

IDV60801

Issued at 10:03 am EST Saturday 23 September 2017 (issued every 30 minutes, with the page automatically refreshed every 10 minutes)

About weather observations | Map of weather stations | Latest weather observations for VIC | Other Formats
Station Details ID: 090175 Name: PORT FAIRY AWS Lat: -38.39 Lon: 142.23 Height: 10.0 m
Data from the previous 72 hours. | See also: Recent months at Port Fairy
Date/Time
EST
Temp
°C
App
Temp
°C
Dew
Point
°C
Rel
Hum
%
Delta-T
°C
Wind Press
QNH
hPa
Press
MSL
hPa
Rain since
9am
mm
Dir  Spd
km/h
Gust
km/h
Spd
kts
Gust
kts
23/10:00am 16.1 15.4 14.3 89 1.0 NE 11 15 6 8 993.8 993.8 0.0
23/09:30am 15.2 14.6 13.6 90 0.9 NNE 9 15 5 8 995.8 995.8 0.0
23/09:00am 15.1 15.1 13.6 91 0.8 NNE 6 7 3 4 996.3 996.3 0.0
23/08:30am 14.8 15.1 13.5 92 0.7 NNW 4 6 2 3 997.5 997.5 0.0
23/08:00am 14.9 14.4 13.8 93 0.6 NE 9 15 5 8 996.0 996.0 0.0
23/07:30am 14.2 14.4 13.2 94 0.6 NNE 4 7 2 4 996.9 996.9 0.0
23/07:00am 13.8 14.3 12.9 94 0.5 WNW 2 6 1 3 998.2 998.2 0.0
23/06:30am 14.0 11.1 12.9 93 0.6 WSW 20 24 11 13 998.8 998.8 0.0
23/06:00am 14.2 9.8 12.9 92 0.7 WSW 28 37 15 20 999.1 999.1 0.0
23/05:30am 14.1 12.0 12.5 90 0.9 WSW 15 22 8 12 999.2 999.2 0.0
23/05:00am 13.4 13.0 11.1 86 1.2 WNW 4 6 2 3 998.8 998.8 0.0
23/04:30am 13.6 12.4 11.7 88 1.0 N 9 13 5 7 998.0 998.0 0.0
23/04:00am 12.9 12.0 11.3 90 0.9 NNW 7 9 4 5 997.1 997.1 0.0
23/03:30am 12.6 11.8 11.0 90 0.8 WNW 6 7 3 4 997.5 997.5 0.0
23/03:00am 12.3 11.3 10.4 88 1.0 NW 6 9 3 5 998.5 998.5 0.0
23/02:30am 13.3 11.7 11.4 88 1.0 N 11 13 6 7 999.1 999.1 0.0
23/02:00am 13.3 12.5 11.0 86 1.2 N 6 7 3 4 999.7 999.7 0.0
23/01:30am 13.9 13.1 10.9 82 1.6 NW 6 7 3 4 1000.5 1000.5 0.0
23/01:00am 14.7 13.7 11.1 79 1.9 W 7 13 4 7 1000.7 1000.7 0.0
23/12:30am 16.0 13.7 11.8 76 2.3 W 15 20 8 11 1001.5 1001.5 0.0
23/12:00am 15.7 12.4 10.9 73 2.6 WNW 19 37 10 20 1001.0 1001.0 0.0
 
Date/Time
EST
Temp
°C
App
Temp
°C
Dew
Point
°C
Rel
Hum
%
Delta-T
°C
Wind Press
QNH
hPa
Press
MSL
hPa
Rain since
9am
mm
Dir  Spd
km/h
Gust
km/h
Spd
kts
Gust
kts
22/11:30pm 16.4 13.9 10.9 70 2.9 N 15 22 8 12 1000.2 1000.2 0.0
22/11:00pm 16.6 14.2 11.3 71 2.9 NNE 15 20 8 11 1000.4 1000.4 0.0
22/10:30pm 16.9 14.1 11.4 70 3.0 NNE 17 24 9 13 1000.9 1000.9 0.0
22/10:00pm 16.8 14.8 11.5 71 2.9 NNE 13 19 7 10 1001.3 1001.3 0.0
22/09:30pm 17.2 15.5 12.3 73 2.7 NNE 13 20 7 11 1001.9 1001.9 0.0
22/09:00pm 16.7 15.8 12.5 76 2.3 NNE 9 15 5 8 1002.1 1002.1 0.0
22/08:30pm 16.5 16.0 12.7 78 2.1 NNE 7 11 4 6 1002.4 1002.4 0.0
22/08:00pm 16.8 16.8 12.5 76 2.4 NNE 4 7 2 4 1002.5 1002.5 0.0
22/07:30pm 17.7 17.4 13.2 75 2.5 NNE 7 9 4 5 1002.2 1002.2 0.0
22/07:00pm 18.0 17.8 13.5 75 2.6 NNE 7 9 4 5 1002.2 1002.2 0.0
22/06:30pm 18.4 17.9 13.9 75 2.6 NNE 9 11 5 6 1001.9 1001.9 0.0
22/06:00pm 17.1 17.5 12.6 75 2.5 SE 2 4 1 2 1003.0 1003.0 0.0
22/05:30pm 18.5 17.9 11.8 65 3.7 WNW 6 13 3 7 1002.9 1002.9 0.0
22/05:00pm 21.6 21.2 13.0 58 4.9 NNW 7 11 4 6 1002.9 1002.9 0.0
22/04:30pm 21.8 20.7 12.1 54 5.5 NNE 9 15 5 8 1002.3 1002.3 0.0
22/04:00pm 21.5 20.6 11.5 53 5.6 N 7 11 4 6 1002.7 1002.7 0.0
22/03:30pm 22.4 19.9 11.2 49 6.2 N 15 22 8 12 1003.0 1003.0 0.0
22/03:00pm 21.4 19.7 11.1 52 5.7 NNW 11 15 6 8 1003.4 1003.4 0.0
22/02:30pm 21.5 19.2 10.6 50 6.0 NW 13 20 7 11 1004.0 1004.0 0.0
22/02:00pm 22.5 20.8 11.3 49 6.3 NNW 11 19 6 10 1004.3 1004.3 0.0
22/01:30pm 20.8 19.0 10.9 53 5.4 N 11 20 6 11 1004.5 1004.5 0.0
22/01:00pm 20.8 19.4 12.2 58 4.8 N 11 20 6 11 1004.9 1004.9 0.0
22/12:30pm 20.8 19.2 12.8 60 4.5 N 13 24 7 13 1005.3 1005.3 0.0
22/12:00pm 19.4 17.5 11.7 61 4.3 N 13 22 7 12 1006.0 1006.0 0.0
22/11:30am 18.4 16.6 12.2 67 3.4 N 13 22 7 12 1006.7 1006.7 0.0
22/11:00am 17.4 16.0 12.1 71 2.9 N 11 20 6 11 1007.0 1007.0 0.0
22/10:30am 16.8 15.3 11.9 73 2.7 NNE 11 17 6 9 1007.8 1007.8 0.0
22/10:00am 15.7 15.4 13.2 85 1.4 NE 7 11 4 6 1008.1 1008.1 0.0
22/09:30am 12.7 11.7 11.1 90 0.8 NE 7 13 4 7 1008.3 1008.3 0.0
22/09:00am 12.2 10.5 11.1 93 0.6 NNE 11 15 6 8 1008.5 1008.5 0.0
22/08:30am 11.1 10.0 10.5 96 0.3 NE 7 11 4 6 1008.6 1008.6 0.0
22/08:00am 10.0 8.8 9.5 97 0.2 NE 6 9 3 5 1008.6 1008.6 0.0
22/07:30am 8.9 8.2 8.5 97 0.2 NNE 2 6 1 3 1008.8 1008.8 0.0
22/07:00am 8.4 6.6 8.0 97 0.2 N 7 9 4 5 1008.5 1008.5 0.0
22/06:30am 8.0 6.1 7.6 97 0.2 NNE 7 9 4 5 1008.4 1008.4 0.0
22/06:00am 7.7 5.7 7.3 97 0.2 N 7 11 4 6 1008.8 1008.8 0.0
22/05:30am 7.6 5.6 7.2 97 0.2 NNE 7 9 4 5 1008.7 1008.7 0.0
22/05:00am 7.3 4.9 6.9 97 0.2 N 9 13 5 7 1009.0 1009.0 0.0
22/04:30am 6.7 4.1 6.3 97 0.2 NNE 9 11 5 6 1009.1 1009.1 0.0
22/04:00am 6.5 4.2 5.9 96 0.3 N 7 9 4 5 1009.1 1009.1 0.0
22/03:30am 6.8 4.6 6.2 96 0.3 N 7 11 4 6 1009.6 1009.6 0.0
22/03:00am 6.8 4.2 6.2 96 0.3 NNE 9 13 5 7 1009.6 1009.6 0.0
22/02:30am 7.1 4.9 6.4 95 0.3 N 7 11 4 6 1010.0 1010.0 0.0
22/02:00am 7.3 5.2 6.6 95 0.3 NE 7 11 4 6 1010.4 1010.4 0.0
22/01:30am 7.4 5.5 6.5 94 0.4 NNE 6 7 3 4 1010.6 1010.6 0.0
22/01:00am 7.7 5.6 6.8 94 0.4 NNE 7 9 4 5 1010.8 1010.8 0.0
22/12:30am 7.9 6.0 6.8 93 0.5 NNE 6 9 3 5 1010.9 1010.9 0.0
22/12:00am 8.2 6.2 7.1 93 0.5 N 7 13 4 7 1011.3 1011.3 0.0
 
Date/Time
EST
Temp
°C
App
Temp
°C
Dew
Point
°C
Rel
Hum
%
Delta-T
°C
Wind Press
QNH
hPa
Press
MSL
hPa
Rain since
9am
mm
Dir  Spd
km/h
Gust
km/h
Spd
kts
Gust
kts
21/11:30pm 8.4 7.0 7.2 92 0.6 NNW 4 6 2 3 1011.3 1011.3 0.0
21/11:00pm 8.7 6.9 7.3 91 0.7 N 6 9 3 5 1011.4 1011.4 0.0
21/10:30pm 8.8 7.0 7.3 90 0.7 NNE 6 9 3 5 1011.7 1011.7 0.0
21/10:00pm 9.4 8.1 7.5 88 0.9 N 4 4 2 2 1011.8 1011.8 0.0
21/09:30pm 10.8 9.3 8.6 86 1.1 WNW 6 11 3 6 1011.6 1011.6 0.0
21/09:00pm 11.4 9.0 8.8 84 1.3 W 11 17 6 9 1011.4 1011.4 0.0
21/08:30pm 11.8 9.5 9.0 83 1.4 W 11 19 6 10 1011.4 1011.4 0.0
21/08:00pm 12.1 9.4 8.9 81 1.6 W 13 19 7 10 1011.0 1011.0 0.0
21/07:30pm 12.3 8.9 9.0 80 1.7 WSW 17 24 9 13 1010.8 1010.8 0.0
21/07:00pm 12.5 8.6 8.8 78 1.9 WSW 19 24 10 13 1010.7 1010.7 0.0
21/06:30pm 12.7 8.3 8.8 77 2.0 WSW 22 30 12 16 1010.3 1010.3 0.0
21/06:00pm 13.1 8.8 9.2 77 2.0 WSW 22 28 12 15 1009.9 1009.9 0.0
21/05:30pm 13.9 8.5 9.5 75 2.3 WSW 28 35 15 19 1009.7 1009.7 0.0
21/05:00pm 13.7 8.7 9.7 77 2.1 WSW 26 33 14 18 1009.5 1009.5 0.0
21/04:30pm 13.8 9.2 9.6 76 2.2 WSW 24 30 13 16 1008.8 1008.8 0.0
21/04:00pm 14.2 9.0 10.4 78 2.0 WSW 28 35 15 19 1008.7 1008.7 0.0
21/03:30pm 15.1 10.1 10.9 76 2.2 WSW 28 35 15 19 1008.7 1008.7 0.0
21/03:00pm 15.1 10.5 10.9 76 2.2 WSW 26 33 14 18 1008.5 1008.5 0.0
21/02:30pm 15.2 9.9 11.2 77 2.1 WSW 30 39 16 21 1008.3 1008.3 0.0
21/02:00pm 14.4 9.1 11.4 82 1.6 WSW 30 39 16 21 1008.3 1008.3 0.0
21/01:30pm 15.3 10.8 12.6 84 1.5 WSW 28 39 15 21 1008.2 1008.2 0.0
21/01:00pm 15.3 10.4 12.4 83 1.6 WSW 30 37 16 20 1007.9 1007.9 0.0
21/12:30pm 17.0 13.2 12.5 75 2.5 WSW 24 32 13 17 1007.9 1007.9 0.0
21/12:00pm 16.7 12.8 12.0 74 2.6 WSW 24 30 13 16 1008.0 1008.0 0.0
21/11:30am 17.8 13.5 7.2 50 5.3 NW 19 32 10 17 1007.4 1007.4 0.0
21/11:00am 17.1 13.8 8.0 55 4.6 NNW 15 26 8 14 1007.5 1007.5 0.0
21/10:30am 16.5 11.4 5.8 49 5.2 NNW 22 35 12 19 1007.4 1007.4 0.0
21/10:00am 16.5 11.4 5.8 49 5.2 NNW 22 33 12 18 1007.2 1007.2 0.0
21/09:30am 16.7 12.2 5.9 49 5.2 NNW 19 32 10 17 1007.2 1007.2 0.0
21/09:00am 15.5 11.5 6.5 55 4.4 N 17 30 9 16 1007.3 1007.3 0.0
21/08:30am 14.4 10.3 6.0 57 4.0 N 17 30 9 16 1007.3 1007.3 0.0
21/08:00am 14.0 9.2 5.4 56 4.1 N 20 28 11 15 1006.7 1006.7 0.0
21/07:30am 13.6 9.7 5.3 57 3.9 N 15 24 8 13 1006.8 1006.8 0.0
21/07:00am 14.0 9.2 5.4 56 4.1 NNE 20 28 11 15 1006.3 1006.3 0.0
21/06:30am 13.7 8.5 5.6 58 3.8 N 22 30 12 16 1006.9 1006.9 0.0
21/06:00am 14.2 8.9 5.0 54 4.3 N 22 33 12 18 1007.0 1007.0 0.0
21/05:30am 14.7 8.6 5.0 52 4.5 N 26 37 14 20 1006.6 1006.6 0.0
21/05:00am 14.9 8.5 5.1 52 4.6 N 28 39 15 21 1006.5 1006.5 0.0
21/04:30am 14.9 9.3 5.4 53 4.5 N 24 37 13 20 1006.8 1006.8 0.0
21/04:00am 15.0 9.9 5.8 54 4.4 N 22 33 12 18 1007.3 1007.3 0.0
21/03:30am 13.2 9.5 7.9 70 2.6 NNE 17 24 9 13 1007.5 1007.5 0.0
21/03:00am 11.8 8.9 8.1 78 1.8 NNE 13 17 7 9 1008.1 1008.1 0.0
21/02:30am 12.0 9.4 7.7 75 2.1 NNE 11 17 6 9 1008.5 1008.5 0.0
21/02:00am 12.3 9.8 8.0 75 2.1 NNE 11 19 6 10 1008.9 1008.9 0.0
21/01:30am 12.5 9.6 8.2 75 2.1 NNE 13 19 7 10 1009.4 1009.4 0.0
21/01:00am 12.2 9.5 8.9 80 1.7 NNE 13 20 7 11 1009.6 1009.6 0.0
21/12:30am 11.9 9.7 9.3 84 1.3 NNE 11 19 6 10 1010.1 1010.1 0.0
21/12:00am 11.9 9.7 9.3 84 1.3 NNE 11 17 6 9 1010.8 1010.8 0.0
 
Date/Time
EST
Temp
°C
App
Temp
°C
Dew
Point
°C
Rel
Hum
%
Delta-T
°C
Wind Press
QNH
hPa
Press
MSL
hPa
Rain since
9am
mm
Dir  Spd
km/h
Gust
km/h
Spd
kts
Gust
kts
20/11:30pm 11.9 9.8 9.6 86 1.2 NNE 11 17 6 9 1011.3 1011.3 0.0
20/11:00pm 11.8 10.4 9.5 86 1.2 NE 7 11 4 6 1011.8 1011.8 0.0
20/10:30pm 11.7 10.3 9.4 86 1.2 NE 7 11 4 6 1011.9 1011.9 0.0
20/10:00pm 12.6 11.4 10.3 86 1.2 NE 7 11 4 6 1012.3 1012.3 0.0
20/09:30pm 12.7 11.4 10.1 84 1.3 NE 7 9 4 5 1012.6 1012.6 0.0
20/09:00pm 13.2 11.5 9.8 80 1.7 NE 9 13 5 7 1012.8 1012.8 0.0
20/08:30pm 13.1 11.4 9.9 81 1.6 NE 9 15 5 8 1012.6 1012.6 0.0
20/08:00pm 12.5 10.9 8.8 78 1.8 NE 7 9 4 5 1013.1 1013.1 0.0
20/07:30pm 12.7 11.2 8.6 76 2.0 NNE 6 9 3 5 1013.5 1013.5 0.0
20/07:00pm 14.2 13.4 9.6 74 2.4 NNE 4 9 2 5 1013.1 1013.1 0.0
20/06:30pm 14.4 13.2 9.6 73 2.5 NNE 6 9 3 5 1013.1 1013.1 0.0
20/06:00pm 15.1 13.5 10.1 72 2.6 NE 9 13 5 7 1012.2 1012.2 0.0
20/05:30pm 15.6 14.3 9.9 69 3.0 NNE 7 11 4 6 1013.1 1013.1 0.0
20/05:00pm 15.9 14.6 10.0 68 3.1 NNE 7 13 4 7 1012.8 1012.8 0.0
20/04:30pm 16.3 14.3 10.2 67 3.2 N 11 17 6 9 1013.3 1013.3 0.0
20/04:00pm 16.5 13.6 9.7 64 3.6 N 15 22 8 12 1013.3 1013.3 0.0
20/03:30pm 17.0 13.7 9.7 62 3.8 N 17 26 9 14 1013.5 1013.5 0.0
20/03:00pm 16.9 13.9 9.1 60 4.0 NNW 15 24 8 13 1014.0 1014.0 0.0
20/02:30pm 17.4 13.5 8.8 57 4.4 NNW 19 33 10 18 1014.1 1014.1 0.0
20/02:00pm 17.3 12.8 8.7 57 4.4 N 22 37 12 20 1014.3 1014.3 0.0
20/01:30pm 16.9 12.8 8.8 59 4.2 NNW 20 33 11 18 1014.9 1014.9 0.0
20/01:00pm 16.2 11.7 8.4 60 4.0 N 22 37 12 20 1014.9 1014.9 0.0
20/12:30pm 15.8 11.2 8.3 61 3.8 NNW 22 32 12 17 1016.2 1016.2 0.0
20/12:00pm 16.2 11.7 8.4 60 4.0 NNW 22 37 12 20 1016.6 1016.6 0.0
20/11:30am 15.8 10.9 8.3 61 3.8 N 24 41 13 22 1016.6 1016.6 0.0
20/11:00am 15.2 11.0 8.4 64 3.4 NNW 20 35 11 19 1017.2 1017.2 0.0
20/10:30am 14.1 9.4 7.9 66 3.1 NNW 22 37 12 20 1018.0 1018.0 0.0

Other Formats:

Comma delimited format used in spreadsheet applications
http://www.bom.gov.au/fwo/IDV60801/IDV60801.94830.axf

JavaScript Object Notation format (JSON) in row-major order
http://www.bom.gov.au/fwo/IDV60801/IDV60801.94830.json